OOCL Oakland — 3EKJ6 — position and weather

sailwx.info

Track history (hours):
 
Tides and Currents Weather Stations Pressure Air Temp Water Temp Dewpoint Dewpoint Depression Visibility Wind Speed Wind Dir Waves Ship Positions

OOCL Oakland

Last reported at 2016-Feb-14 09:33 UTC. Time now 2016-Feb-14 10:09 UTC.
Position S 32°57' E 152°18'.

Length 280 m; draft 11.6 m.

Type: Ship. MMSI: 372703235.

Date/timePositionNaut miles runAvg speedWind from/ knotsBaromVisibWave heightAir tempDewpointWater temp
2016-Feb-14 09:33S 32°57' E 152°18'1616.1
2016-Feb-14 08:33S 32°44' E 152°29'1615.6
2016-Feb-14 07:33S 32°31' E 152°40'1615.7
2016-Feb-14 06:33S 32°17' E 152°47'1616.0
2016-Feb-14 05:33S 32°02' E 152°53'1717.5
2016-Feb-14 04:33S 31°45' E 152°60'2420.8
2016-Feb-14 03:25S 31°22' E 153°09'1821.2
2016-Feb-14 02:33S 31°05' E 153°15'  
2016-Feb-04 13:06N 22°06' E 114°23'914.8
2016-Feb-04 12:30N 22°07' E 114°14'1111.6
2016-Feb-04 11:31N 22°16' E 114°06'3 3.3
2016-Feb-04 10:28N 22°20' E 114°08'  
Track history (hours):
 
Tides and Currents Weather Stations Pressure Air Temp Water Temp Dewpoint Dewpoint Depression Visibility Wind Speed Wind Dir Waves Ship Positions

OOCL Oakland

Last reported at 2016-Feb-14 09:33 UTC. Time now 2016-Feb-14 10:09 UTC.
Position S 32°57' E 152°18'.

Length 280 m; draft 11.6 m.

Type: Ship. MMSI: 372703235.

Date/timePositionNaut miles runAvg speedWind from/ knotsBaromVisibWave heightAir tempDewpointWater temp
2016-Feb-14 09:33S 32°57' E 152°18'1616.1
2016-Feb-14 08:33S 32°44' E 152°29'1615.6
2016-Feb-14 07:33S 32°31' E 152°40'1615.7
2016-Feb-14 06:33S 32°17' E 152°47'1616.0
2016-Feb-14 05:33S 32°02' E 152°53'1717.5
2016-Feb-14 04:33S 31°45' E 152°60'2420.8
2016-Feb-14 03:25S 31°22' E 153°09'1821.2
2016-Feb-14 02:33S 31°05' E 153°15'  
2016-Feb-04 13:06N 22°06' E 114°23'914.8
2016-Feb-04 12:30N 22°07' E 114°14'1111.6
2016-Feb-04 11:31N 22°16' E 114°06'3 3.3
2016-Feb-04 10:28N 22°20' E 114°08'  

Dump ship's entire track history